Time;durP1;ratioP1;P1;durP2;ratioP2;P2;SDS_P1;SDS_P2;PMS_P1;PMS_P2;Temp;Humidity;BMP_temperature;BMP_pressure;BME280_temperature;BME280_humidity;BME280_pressure;Samples;Min_cycle;Max_cycle;Signal;HPM_P1;HPM_P2
2022/07/19 00:00:11;;;;;;;8.80;2.90;;;;;;;;;;5023156;28;20072;-82
2022/07/19 00:02:39;;;;;;;5.22;2.80;;;;;;;;;;5020447;28;20033;-82
2022/07/19 00:05:06;;;;;;;3.53;2.60;;;;;;;;;;5021381;28;20483;-82
2022/07/19 00:07:33;;;;;;;6.13;2.67;;;;;;;;;;5021934;28;20033;-81
2022/07/19 00:10:03;;;;;;;4.57;2.60;;;;;;;;;;5030822;28;20029;-82
2022/07/19 00:12:31;;;;;;;4.18;2.90;;;;;;;;;;5029686;28;20046;-82
2022/07/19 00:14:58;;;;;;;4.47;2.92;;;;;;;;;;5029308;28;20542;-81
2022/07/19 00:17:25;;;;;;;4.18;2.65;;;;;;;;;;5029695;28;20026;-81
2022/07/19 00:19:59;;;;;;;4.57;2.58;;;;;;;;;;5028801;28;20025;-82
2022/07/19 00:22:35;;;;;;;4.43;2.67;;;;;;;;;;5028714;28;20042;-82
2022/07/19 00:25:02;;;;;;;4.07;2.70;;;;;;;;;;5022691;28;20483;-80
2022/07/19 00:27:28;;;;;;;4.70;2.55;;;;;;;;;;5018501;28;20384;-80
2022/07/19 00:29:55;;;;;;;5.10;2.63;;;;;;;;;;5019783;28;20464;-81
2022/07/19 00:32:23;;;;;;;4.82;2.78;;;;;;;;;;5020989;28;20030;-82
2022/07/19 00:34:52;;;;;;;6.57;3.25;;;;;;;;;;5021018;28;20094;-81
2022/07/19 00:37:20;;;;;;;4.78;2.25;;;;;;;;;;5018938;28;20053;-81
2022/07/19 00:39:47;;;;;;;5.78;2.97;;;;;;;;;;5019896;28;20026;-82
2022/07/19 00:42:17;;;;;;;4.72;2.65;;;;;;;;;;5020737;28;20033;-82
2022/07/19 00:44:44;;;;;;;6.35;2.70;;;;;;;;;;5019214;28;20476;-81
2022/07/19 00:47:11;;;;;;;6.75;2.70;;;;;;;;;;5019749;28;20488;-82
2022/07/19 00:49:38;;;;;;;3.38;2.20;;;;;;;;;;5018893;28;20026;-82
2022/07/19 00:52:09;;;;;;;3.72;2.30;;;;;;;;;;5021986;28;20476;-82
2022/07/19 00:54:36;;;;;;;6.50;2.95;;;;;;;;;;5025417;28;20053;-82
2022/07/19 00:57:03;;;;;;;6.25;2.67;;;;;;;;;;5023855;28;20492;-81
2022/07/19 00:59:30;;;;;;;4.22;2.15;;;;;;;;;;5023877;28;20030;-82
2022/07/19 01:02:12;;;;;;;5.05;2.72;;;;;;;;;;5024605;28;20496;-81
2022/07/19 01:04:47;;;;;;;6.22;2.90;;;;;;;;;;5008100;28;20022;-81
2022/07/19 01:07:14;;;;;;;5.72;2.55;;;;;;;;;;5024597;28;20404;-81
2022/07/19 01:09:42;;;;;;;4.65;2.33;;;;;;;;;;5025890;28;20061;-82
2022/07/19 01:12:09;;;;;;;3.88;2.55;;;;;;;;;;5023829;28;20060;-81
2022/07/19 01:14:39;;;;;;;4.22;2.65;;;;;;;;;;5026707;28;20022;-81
2022/07/19 01:17:06;;;;;;;5.60;2.80;;;;;;;;;;5025932;28;20018;-81
2022/07/19 01:19:43;;;;;;;4.35;2.72;;;;;;;;;;5025154;28;20061;-81
2022/07/19 01:22:17;;;;;;;3.25;2.30;;;;;;;;;;5026056;28;20026;-81
2022/07/19 01:24:43;;;;;;;3.88;2.67;;;;;;;;;;5025904;28;20550;-81
2022/07/19 01:27:10;;;;;;;3.92;2.90;;;;;;;;;;5025663;28;20049;-82
2022/07/19 01:29:37;;;;;;;5.75;2.75;;;;;;;;;;5026458;28;20033;-81
2022/07/19 01:32:10;;;;;;;6.50;3.10;;;;;;;;;;5025599;28;20040;-81
2022/07/19 01:34:39;;;;;;;4.88;2.78;;;;;;;;;;5025922;28;20100;-81
2022/07/19 01:37:06;;;;;;;4.13;2.60;;;;;;;;;;5026154;28;20438;-81
2022/07/19 01:39:37;;;;;;;5.07;2.80;;;;;;;;;;5028584;28;20475;-81
2022/07/19 01:42:11;;;;;;;4.60;3.03;;;;;;;;;;5009136;28;20458;-81
2022/07/19 01:44:39;;;;;;;4.93;2.60;;;;;;;;;;5026939;28;20041;-82
2022/07/19 01:47:07;;;;;;;4.47;2.58;;;;;;;;;;5028611;28;20057;-81
2022/07/19 01:49:35;;;;;;;5.15;2.85;;;;;;;;;;5030466;28;20384;-81
2022/07/19 01:52:03;;;;;;;6.22;2.78;;;;;;;;;;5029464;28;20034;-81
2022/07/19 01:54:32;;;;;;;6.32;2.65;;;;;;;;;;5028844;28;20097;-81
2022/07/19 01:57:02;;;;;;;5.32;2.53;;;;;;;;;;5028998;28;20029;-81
2022/07/19 01:59:33;;;;;;;5.50;2.80;;;;;;;;;;5028982;28;20029;-81
2022/07/19 02:02:16;;;;;;;4.90;2.63;;;;;;;;;;5030769;28;20514;-81
2022/07/19 02:04:48;;;;;;;3.28;2.40;;;;;;;;;;5032592;28;20033;-81
2022/07/19 02:07:24;;;;;;;3.33;2.50;;;;;;;;;;5032704;28;20037;-81
2022/07/19 02:09:51;;;;;;;6.13;2.70;;;;;;;;;;5025245;28;20025;-82
2022/07/19 02:12:19;;;;;;;5.85;2.63;;;;;;;;;;5026339;28;20057;-81
2022/07/19 02:14:47;;;;;;;3.72;2.60;;;;;;;;;;5023380;28;20042;-81
2022/07/19 02:17:15;;;;;;;4.93;2.55;;;;;;;;;;5022447;28;20041;-81
2022/07/19 02:19:42;;;;;;;4.00;2.85;;;;;;;;;;5006601;28;20045;-81
2022/07/19 02:22:09;;;;;;;4.65;2.58;;;;;;;;;;5026464;28;20064;-81
2022/07/19 02:24:36;;;;;;;4.30;2.70;;;;;;;;;;5027096;28;20089;-82
2022/07/19 02:27:05;;;;;;;5.65;2.97;;;;;;;;;;5027991;28;20069;-81
2022/07/19 02:29:32;;;;;;;11.20;3.03;;;;;;;;;;5027254;28;20026;-81
2022/07/19 02:32:03;;;;;;;4.93;2.53;;;;;;;;;;5025359;28;20017;-81
2022/07/19 02:34:29;;;;;;;4.35;2.60;;;;;;;;;;5021863;28;20033;-81
2022/07/19 02:36:56;;;;;;;5.20;2.70;;;;;;;;;;5023910;28;20030;-81
2022/07/19 02:39:30;;;;;;;3.83;2.80;;;;;;;;;;5026020;28;20499;-82
2022/07/19 02:41:57;;;;;;;4.55;3.00;;;;;;;;;;5026967;28;20038;-81
2022/07/19 02:44:23;;;;;;;4.15;2.63;;;;;;;;;;5023014;28;20030;-80
2022/07/19 02:46:56;;;;;;;5.95;2.83;;;;;;;;;;5021936;28;20385;-81
2022/07/19 02:49:24;;;;;;;5.97;3.05;;;;;;;;;;5024469;28;20030;-82
2022/07/19 02:51:51;;;;;;;3.60;2.75;;;;;;;;;;5024423;28;20034;-81
2022/07/19 02:54:18;;;;;;;6.65;2.83;;;;;;;;;;5023050;28;20395;-82
2022/07/19 02:56:50;;;;;;;5.93;3.20;;;;;;;;;;5021143;28;20030;-81
2022/07/19 02:59:20;;;;;;;3.58;2.70;;;;;;;;;;5021511;28;20034;-82
2022/07/19 03:01:47;;;;;;;5.27;2.70;;;;;;;;;;5023084;28;20036;-81
2022/07/19 03:04:16;;;;;;;4.57;2.58;;;;;;;;;;5021575;28;20094;-81
2022/07/19 03:06:44;;;;;;;4.60;2.92;;;;;;;;;;5013359;28;20022;-81
2022/07/19 03:09:14;;;;;;;4.65;2.80;;;;;;;;;;5034105;28;20029;-82
2022/07/19 03:11:42;;;;;;;4.15;2.60;;;;;;;;;;5028503;28;20025;-81
2022/07/19 03:14:08;;;;;;;3.13;2.70;;;;;;;;;;5024134;28;20200;-81
2022/07/19 03:16:35;;;;;;;5.28;3.15;;;;;;;;;;5022578;28;20502;-81
2022/07/19 03:19:03;;;;;;;3.42;2.65;;;;;;;;;;5023515;28;20024;-82
2022/07/19 03:21:30;;;;;;;3.63;2.58;;;;;;;;;;5025448;28;20026;-82
2022/07/19 03:23:59;;;;;;;5.40;2.75;;;;;;;;;;5023650;28;20034;-82
2022/07/19 03:26:26;;;;;;;5.65;3.05;;;;;;;;;;5022865;28;20025;-81
2022/07/19 03:28:53;;;;;;;4.18;2.60;;;;;;;;;;5023416;28;20483;-82
2022/07/19 03:31:21;;;;;;;3.45;2.63;;;;;;;;;;5022965;28;20420;-83
2022/07/19 03:34:00;;;;;;;3.85;2.45;;;;;;;;;;5025095;28;20006;-82
2022/07/19 03:36:32;;;;;;;4.88;3.00;;;;;;;;;;5033117;28;20033;-81
2022/07/19 03:39:03;;;;;;;5.57;2.60;;;;;;;;;;5033232;28;20033;-83
2022/07/19 03:41:31;;;;;;;7.30;2.85;;;;;;;;;;5031604;28;20138;-83
2022/07/19 03:44:05;;;;;;;6.00;3.25;;;;;;;;;;5029658;28;20064;-83
2022/07/19 03:46:35;;;;;;;6.45;2.85;;;;;;;;;;5023980;28;20037;-83
2022/07/19 03:49:03;;;;;;;4.80;2.97;;;;;;;;;;5023850;28;20471;-81
2022/07/19 03:51:38;;;;;;;4.00;3.08;;;;;;;;;;5024564;28;20031;-82
2022/07/19 03:54:08;;;;;;;3.97;2.67;;;;;;;;;;5022433;28;20396;-82
2022/07/19 03:56:42;;;;;;;3.67;2.88;;;;;;;;;;5024212;28;20531;-82
2022/07/19 03:59:09;;;;;;;5.63;3.08;;;;;;;;;;5026064;28;20026;-81
2022/07/19 04:01:44;;;;;;;5.00;3.10;;;;;;;;;;5025664;28;20479;-82
2022/07/19 04:04:12;;;;;;;6.35;2.50;;;;;;;;;;5021400;28;20168;-81
2022/07/19 04:06:42;;;;;;;7.97;3.15;;;;;;;;;;5023663;28;20026;-81
2022/07/19 04:09:09;;;;;;;4.22;3.15;;;;;;;;;;5026014;28;20057;-82
2022/07/19 04:11:36;;;;;;;6.20;3.42;;;;;;;;;;5022770;28;20025;-82
2022/07/19 04:14:03;;;;;;;7.15;4.30;;;;;;;;;;5026065;28;20054;-82
2022/07/19 04:16:30;;;;;;;7.40;3.40;;;;;;;;;;5025605;28;20543;-82
2022/07/19 04:18:57;;;;;;;9.02;3.97;;;;;;;;;;5022361;28;20025;-81
2022/07/19 04:21:24;;;;;;;7.88;5.05;;;;;;;;;;5024882;28;20479;-82
2022/07/19 04:23:51;;;;;;;7.05;3.47;;;;;;;;;;5024820;28;20117;-82
2022/07/19 04:26:18;;;;;;;4.32;3.58;;;;;;;;;;5023841;28;20030;-82
2022/07/19 04:28:46;;;;;;;5.10;3.75;;;;;;;;;;5023300;28;20026;-83
2022/07/19 04:31:14;;;;;;;4.10;3.08;;;;;;;;;;5024698;28;20535;-83
2022/07/19 04:33:41;;;;;;;7.47;3.65;;;;;;;;;;5023949;28;20032;-82
2022/07/19 04:36:12;;;;;;;4.40;3.35;;;;;;;;;;5023229;28;20494;-83
2022/07/19 04:38:40;;;;;;;5.45;3.60;;;;;;;;;;5026148;28;20399;-79
2022/07/19 04:41:09;;;;;;;7.70;4.40;;;;;;;;;;5025164;28;20091;-80
2022/07/19 04:43:39;;;;;;;10.38;4.43;;;;;;;;;;5023949;28;20426;-82
2022/07/19 04:46:06;;;;;;;4.75;4.18;;;;;;;;;;5029823;28;20030;-83
2022/07/19 04:48:33;;;;;;;11.68;3.97;;;;;;;;;;5026039;28;20480;-79
2022/07/19 04:51:00;;;;;;;4.75;3.53;;;;;;;;;;5026771;28;20491;-79
2022/07/19 04:53:27;;;;;;;5.18;3.50;;;;;;;;;;5028643;28;20034;-83
2022/07/19 04:56:18;;;;;;;6.70;3.35;;;;;;;;;;5028362;28;20097;-82
2022/07/19 04:58:48;;;;;;;8.43;3.63;;;;;;;;;;5014850;28;20014;-82
2022/07/19 05:01:15;;;;;;;4.45;3.05;;;;;;;;;;5030923;28;20030;-82
2022/07/19 05:03:44;;;;;;;5.22;3.47;;;;;;;;;;5031927;28;20040;-83
2022/07/19 05:06:15;;;;;;;6.32;3.30;;;;;;;;;;5029899;28;20022;-82
2022/07/19 05:08:42;;;;;;;5.30;3.72;;;;;;;;;;5030383;28;20021;-82
2022/07/19 05:11:13;;;;;;;7.43;5.13;;;;;;;;;;5030568;28;20475;-83
2022/07/19 05:13:45;;;;;;;9.65;5.55;;;;;;;;;;5029535;28;20061;-82
2022/07/19 05:16:17;;;;;;;8.35;4.78;;;;;;;;;;5030715;28;20037;-81
2022/07/19 05:18:56;;;;;;;7.85;4.22;;;;;;;;;;5034820;28;20014;-83
2022/07/19 05:21:25;;;;;;;8.00;3.55;;;;;;;;;;5025933;28;20034;-80
2022/07/19 05:23:58;;;;;;;7.28;3.90;;;;;;;;;;5029132;28;20084;-84
2022/07/19 05:26:33;;;;;;;6.45;3.45;;;;;;;;;;5027888;28;20006;-81
2022/07/19 05:29:00;;;;;;;10.07;4.15;;;;;;;;;;5029048;28;20424;-80
2022/07/19 05:31:27;;;;;;;5.90;3.72;;;;;;;;;;5022912;28;20053;-81
2022/07/19 05:33:55;;;;;;;5.10;3.70;;;;;;;;;;5030730;28;20022;-82
2022/07/19 05:36:25;;;;;;;6.25;3.95;;;;;;;;;;5030163;28;20054;-83
2022/07/19 05:38:55;;;;;;;12.52;4.25;;;;;;;;;;5027604;28;20034;-83
2022/07/19 05:41:23;;;;;;;5.75;3.80;;;;;;;;;;5029383;28;20036;-83
2022/07/19 05:43:58;;;;;;;8.30;3.80;;;;;;;;;;5029150;28;20045;-83
2022/07/19 05:46:31;;;;;;;5.93;3.33;;;;;;;;;;5032316;28;20086;-84
2022/07/19 05:49:28;;;;;;;10.63;3.80;;;;;;;;;;5039063;28;20030;-84
2022/07/19 05:51:55;;;;;;;6.43;3.70;;;;;;;;;;5023640;28;20057;-80
2022/07/19 05:54:22;;;;;;;8.23;3.20;;;;;;;;;;5027205;28;20034;-81
2022/07/19 05:56:56;;;;;;;8.05;3.80;;;;;;;;;;5034737;28;20016;-83
2022/07/19 05:59:30;;;;;;;8.57;3.83;;;;;;;;;;5024579;28;20113;-83
2022/07/19 06:01:59;;;;;;;6.70;4.70;;;;;;;;;;5034702;28;20084;-82
2022/07/19 06:07:33;;;;;;;5.13;3.40;;;;;;;;;;5035337;28;20040;-83
2022/07/19 06:10:09;;;;;;;5.18;3.85;;;;;;;;;;5030642;28;20022;-81
2022/07/19 06:12:48;;;;;;;7.40;3.40;;;;;;;;;;5025396;28;20046;-81
2022/07/19 06:15:22;;;;;;;10.07;4.15;;;;;;;;;;5011291;28;20125;-82
2022/07/19 06:17:55;;;;;;;7.20;3.33;;;;;;;;;;5036585;28;20010;-84
2022/07/19 06:20:22;;;;;;;6.10;3.20;;;;;;;;;;5032886;28;20042;-81
2022/07/19 06:22:59;;;;;;;5.47;3.28;;;;;;;;;;5026491;28;20055;-82
2022/07/19 06:25:29;;;;;;;8.05;3.50;;;;;;;;;;5033817;28;20029;-81
2022/07/19 06:27:56;;;;;;;5.67;3.73;;;;;;;;;;5028426;28;20022;-82
2022/07/19 06:30:25;;;;;;;5.55;3.45;;;;;;;;;;5026569;28;20026;-81
2022/07/19 06:32:57;;;;;;;12.55;3.70;;;;;;;;;;5026761;28;20508;-83
2022/07/19 06:35:24;;;;;;;7.43;3.65;;;;;;;;;;5033263;28;20026;-83
2022/07/19 06:37:55;;;;;;;8.10;4.00;;;;;;;;;;5027772;28;20014;-83
2022/07/19 06:40:22;;;;;;;6.78;4.50;;;;;;;;;;5027776;28;20117;-82
2022/07/19 06:42:57;;;;;;;6.70;4.28;;;;;;;;;;5031134;28;20046;-83
2022/07/19 06:45:30;;;;;;;6.38;3.80;;;;;;;;;;5033785;28;20041;-82
2022/07/19 06:48:01;;;;;;;9.93;3.95;;;;;;;;;;5008152;28;20084;-82
2022/07/19 06:50:35;;;;;;;9.00;3.88;;;;;;;;;;5036590;28;20045;-82
2022/07/19 06:53:21;;;;;;;5.65;4.22;;;;;;;;;;5037824;28;20048;-82
2022/07/19 06:56:02;;;;;;;6.40;4.55;;;;;;;;;;5022289;28;20014;-82
2022/07/19 06:58:53;;;;;;;8.95;4.65;;;;;;;;;;5037651;28;20017;-82
2022/07/19 07:01:35;;;;;;;8.60;4.05;;;;;;;;;;5038381;28;20045;-82
2022/07/19 07:04:04;;;;;;;9.70;3.75;;;;;;;;;;5036166;28;20112;-82
2022/07/19 07:06:35;;;;;;;15.13;4.93;;;;;;;;;;5037415;28;20032;-83
2022/07/19 07:09:18;;;;;;;14.43;5.80;;;;;;;;;;5038299;28;20028;-82
2022/07/19 07:27:17;;;;;;;13.90;6.60;;;;;;;;;;5519837;23;20076;-84
2022/07/19 07:29:54;;;;;;;15.32;8.95;;;;;;;;;;4854397;29;20084;-82
2022/07/19 07:32:20;;;;;;;8.65;5.55;;;;;;;;;;4862453;29;20029;-82
2022/07/19 07:34:46;;;;;;;8.02;5.20;;;;;;;;;;4845759;29;20058;-82
2022/07/19 07:37:13;;;;;;;11.38;8.15;;;;;;;;;;4845630;29;20068;-82
2022/07/19 07:39:39;;;;;;;8.95;4.43;;;;;;;;;;4845411;29;20029;-82
2022/07/19 07:42:05;;;;;;;6.88;4.50;;;;;;;;;;4845297;29;20401;-84
2022/07/19 07:44:32;;;;;;;6.68;5.00;;;;;;;;;;4844645;29;20094;-80
2022/07/19 07:46:58;;;;;;;13.30;5.25;;;;;;;;;;4845408;29;20030;-82
2022/07/19 07:49:24;;;;;;;6.90;4.63;;;;;;;;;;4845106;29;20053;-82
2022/07/19 07:51:50;;;;;;;11.65;4.20;;;;;;;;;;4845347;29;20060;-81
2022/07/19 07:54:21;;;;;;;8.23;4.80;;;;;;;;;;4867897;29;20048;-84
2022/07/19 07:57:10;;;;;;;7.68;5.35;;;;;;;;;;4885083;29;20082;-82
2022/07/19 07:59:52;;;;;;;10.95;4.75;;;;;;;;;;4884827;29;20034;-79
2022/07/19 08:02:36;;;;;;;10.00;4.17;;;;;;;;;;4884705;29;20161;-84
2022/07/19 08:05:37;;;;;;;11.65;4.25;;;;;;;;;;4883406;29;20048;-81
2022/07/19 08:08:54;;;;;;;6.18;4.00;;;;;;;;;;4867499;29;20014;-85
2022/07/19 08:14:51;;;;;;;5.93;3.92;;;;;;;;;;4865388;29;20051;-85
2022/07/19 08:39:44;;;;;;;8.82;4.18;;;;;;;;;;4846335;29;20022;-84
2022/07/19 08:46:16;;;;;;;9.55;4.45;;;;;;;;;;4846402;29;20049;-85
2022/07/19 09:26:06;;;;;;;6.85;3.80;;;;;;;;;;4886782;23;20091;-78
2022/07/19 09:28:36;;;;;;;3.58;2.63;;;;;;;;;;4843653;29;20065;-78
2022/07/19 09:31:03;;;;;;;5.45;3.08;;;;;;;;;;4842906;29;20038;-77
2022/07/19 09:33:30;;;;;;;5.60;3.33;;;;;;;;;;4843385;29;20045;-78
2022/07/19 09:36:01;;;;;;;4.70;3.22;;;;;;;;;;4843460;29;20388;-78
2022/07/19 09:38:37;;;;;;;5.30;3.80;;;;;;;;;;4883812;29;20040;-81
2022/07/19 09:41:14;;;;;;;6.32;4.10;;;;;;;;;;4868162;29;20045;-81
2022/07/19 09:44:01;;;;;;;6.43;4.05;;;;;;;;;;4866705;29;20038;-81
2022/07/19 10:57:51;;;;;;;7.93;2.90;;;;;;;;;;4882987;29;20060;-79
2022/07/19 11:00:30;;;;;;;3.60;3.20;;;;;;;;;;4864270;29;20049;-79
2022/07/19 11:03:25;;;;;;;6.13;2.97;;;;;;;;;;4860566;29;20044;-82
2022/07/19 11:05:55;;;;;;;6.18;2.75;;;;;;;;;;4859157;29;20040;-79
2022/07/19 11:08:39;;;;;;;3.70;3.05;;;;;;;;;;4854893;29;20032;-78
2022/07/19 11:11:14;;;;;;;5.03;3.03;;;;;;;;;;4859871;29;20025;-79
2022/07/19 11:13:43;;;;;;;5.20;3.80;;;;;;;;;;4840847;29;20029;-82
2022/07/19 11:16:14;;;;;;;4.95;3.45;;;;;;;;;;4838817;29;20034;-82
2022/07/19 11:18:41;;;;;;;3.63;3.03;;;;;;;;;;4838462;29;20481;-83
2022/07/19 11:21:08;;;;;;;7.20;3.60;;;;;;;;;;4836435;29;20040;-81
2022/07/19 11:23:39;;;;;;;12.18;3.83;;;;;;;;;;4834396;29;20034;-83
2022/07/19 11:26:32;;;;;;;10.27;5.45;;;;;;;;;;4835860;29;20037;-79
2022/07/19 11:29:00;;;;;;;8.77;3.58;;;;;;;;;;4833604;29;20045;-83
2022/07/19 11:31:30;;;;;;;4.55;3.05;;;;;;;;;;4842071;29;20029;-84
2022/07/19 11:34:00;;;;;;;5.78;3.63;;;;;;;;;;4840515;29;20449;-84
2022/07/19 11:36:30;;;;;;;5.95;3.55;;;;;;;;;;4847095;29;20037;-84
2022/07/19 11:39:03;;;;;;;6.25;4.47;;;;;;;;;;4845847;29;20039;-83
2022/07/19 11:41:44;;;;;;;5.03;3.53;;;;;;;;;;4845180;29;20074;-83
2022/07/19 11:44:11;;;;;;;5.32;3.97;;;;;;;;;;4826589;29;20128;-78
2022/07/19 11:46:40;;;;;;;4.63;3.80;;;;;;;;;;4842744;29;20046;-78
2022/07/19 11:49:07;;;;;;;5.07;3.88;;;;;;;;;;4826647;29;20025;-76
2022/07/19 11:51:34;;;;;;;8.73;4.20;;;;;;;;;;4826614;29;20026;-77
2022/07/19 11:54:00;;;;;;;6.20;3.85;;;;;;;;;;4826583;29;20098;-78
2022/07/19 11:56:32;;;;;;;8.30;3.67;;;;;;;;;;4840454;29;20025;-82
2022/07/19 11:59:07;;;;;;;6.63;3.90;;;;;;;;;;4842198;29;20089;-83
2022/07/19 12:01:46;;;;;;;5.55;3.08;;;;;;;;;;4841913;29;20026;-83
2022/07/19 12:04:34;;;;;;;6.38;3.20;;;;;;;;;;4843932;29;20050;-81
2022/07/19 12:07:19;;;;;;;4.10;2.90;;;;;;;;;;4843483;29;20378;-85
2022/07/19 12:09:52;;;;;;;4.78;3.13;;;;;;;;;;4841345;29;20063;-84
2022/07/19 12:12:24;;;;;;;8.18;3.85;;;;;;;;;;4840170;29;20034;-81
2022/07/19 12:15:06;;;;;;;5.07;3.83;;;;;;;;;;4838711;29;20048;-84
2022/07/19 12:17:47;;;;;;;3.80;3.15;;;;;;;;;;4842660;29;20049;-83
2022/07/19 12:20:16;;;;;;;6.40;4.05;;;;;;;;;;4834796;29;20396;-84
2022/07/19 12:22:42;;;;;;;7.63;4.15;;;;;;;;;;4842685;29;20048;-80
2022/07/19 12:25:09;;;;;;;3.97;2.75;;;;;;;;;;4826160;29;20022;-80
2022/07/19 12:27:35;;;;;;;5.47;3.40;;;;;;;;;;4826104;29;20033;-81
2022/07/19 12:30:02;;;;;;;5.15;3.10;;;;;;;;;;4826292;29;20158;-80
2022/07/19 12:32:35;;;;;;;7.78;3.42;;;;;;;;;;4839002;29;20033;-84
2022/07/19 12:35:05;;;;;;;4.47;3.28;;;;;;;;;;4838078;29;20400;-84
2022/07/19 12:37:42;;;;;;;7.40;3.85;;;;;;;;;;4840339;29;20133;-84
2022/07/19 12:40:27;;;;;;;3.95;2.53;;;;;;;;;;4853922;29;20512;-84
2022/07/19 12:43:02;;;;;;;4.88;3.10;;;;;;;;;;4841228;29;20508;-84
2022/07/19 12:45:43;;;;;;;5.22;3.25;;;;;;;;;;4838043;29;20108;-85
2022/07/19 12:48:21;;;;;;;6.38;3.13;;;;;;;;;;4843353;29;20034;-83
2022/07/19 12:50:57;;;;;;;5.68;3.45;;;;;;;;;;4855380;29;20038;-84
2022/07/19 12:53:23;;;;;;;5.20;3.58;;;;;;;;;;4835776;29;20037;-85
2022/07/19 12:56:01;;;;;;;7.57;3.75;;;;;;;;;;4838018;29;20055;-83
2022/07/19 13:01:17;;;;;;;6.15;3.30;;;;;;;;;;4857104;29;20116;-82
2022/07/19 13:03:48;;;;;;;5.90;3.97;;;;;;;;;;4856762;29;20034;-84
2022/07/19 13:06:19;;;;;;;8.38;4.25;;;;;;;;;;4836729;29;20436;-83
2022/07/19 13:08:48;;;;;;;6.68;4.05;;;;;;;;;;4837447;29;20405;-85
2022/07/19 13:11:16;;;;;;;6.40;3.85;;;;;;;;;;4846971;29;20056;-84
2022/07/19 13:13:46;;;;;;;;;;;;;;;;;;4857899;29;20462;-84
2022/07/19 13:16:35;;;;;;;6.05;4.05;;;;;;;;;;4838965;29;19916;-83
2022/07/19 13:19:04;;;;;;;7.45;3.78;;;;;;;;;;4844130;29;20101;-84
2022/07/19 13:21:34;;;;;;;6.22;4.22;;;;;;;;;;4858099;29;20061;-85
2022/07/19 13:24:02;;;;;;;16.42;14.85;;;;;;;;;;4847651;29;20038;-84
2022/07/19 13:26:29;;;;;;;7.22;5.03;;;;;;;;;;4843647;29;20037;-85
2022/07/19 13:28:55;;;;;;;8.75;3.95;;;;;;;;;;4847580;29;20034;-84
2022/07/19 13:31:27;;;;;;;6.45;3.80;;;;;;;;;;4844064;29;20030;-84
2022/07/19 13:33:58;;;;;;;16.83;4.57;;;;;;;;;;4842578;29;20030;-85
2022/07/19 13:36:24;;;;;;;7.10;4.30;;;;;;;;;;4844408;29;20397;-85
2022/07/19 13:38:56;;;;;;;4.88;4.13;;;;;;;;;;4845804;29;20501;-84
2022/07/19 13:41:23;;;;;;;8.03;3.90;;;;;;;;;;4841944;29;20560;-85
2022/07/19 13:43:53;;;;;;;6.22;3.95;;;;;;;;;;4845320;29;20037;-84
2022/07/19 13:46:20;;;;;;;7.90;4.30;;;;;;;;;;4838310;29;20535;-85
2022/07/19 13:48:50;;;;;;;7.85;4.00;;;;;;;;;;4844931;29;20026;-81
2022/07/19 13:51:20;;;;;;;9.77;4.38;;;;;;;;;;4860342;29;20054;-80
2022/07/19 13:53:57;;;;;;;5.25;3.83;;;;;;;;;;4847395;29;20055;-80
2022/07/19 13:56:38;;;;;;;10.43;4.57;;;;;;;;;;4837452;29;20044;-83
2022/07/19 13:59:12;;;;;;;6.85;4.57;;;;;;;;;;4849379;29;20038;-81
2022/07/19 14:01:41;;;;;;;7.43;4.40;;;;;;;;;;4846237;29;20030;-81
2022/07/19 14:04:33;;;;;;;5.57;3.90;;;;;;;;;;4847001;29;20098;-81
2022/07/19 14:07:08;;;;;;;6.60;4.30;;;;;;;;;;4857098;29;20041;-82
2022/07/19 14:09:37;;;;;;;7.07;4.28;;;;;;;;;;4840182;29;20030;-82
2022/07/19 14:12:07;;;;;;;7.93;5.07;;;;;;;;;;4843889;29;20034;-82
2022/07/19 14:14:34;;;;;;;11.23;5.28;;;;;;;;;;4839668;29;20033;-82
2022/07/19 14:17:10;;;;;;;8.10;6.35;;;;;;;;;;4841627;29;20111;-80
2022/07/19 14:19:42;;;;;;;7.88;3.88;;;;;;;;;;4840097;29;20506;-84
2022/07/19 14:22:09;;;;;;;8.95;3.92;;;;;;;;;;4843969;29;20485;-81
2022/07/19 14:24:36;;;;;;;7.07;3.92;;;;;;;;;;4842028;29;20065;-83
2022/07/19 14:27:03;;;;;;;5.40;3.53;;;;;;;;;;4839990;29;20026;-84
2022/07/19 14:29:30;;;;;;;6.13;3.13;;;;;;;;;;4840883;29;20033;-84
2022/07/19 14:32:00;;;;;;;8.55;4.30;;;;;;;;;;4841306;29;20397;-83
2022/07/19 14:34:30;;;;;;;6.15;4.22;;;;;;;;;;4841992;29;20057;-84
2022/07/19 14:37:03;;;;;;;6.80;3.60;;;;;;;;;;4847747;29;20022;-83
2022/07/19 14:39:32;;;;;;;5.50;3.55;;;;;;;;;;4845690;29;20041;-84
2022/07/19 14:42:01;;;;;;;6.90;3.92;;;;;;;;;;4841573;29;20081;-83
2022/07/19 14:44:32;;;;;;;5.63;4.13;;;;;;;;;;4842174;29;20060;-80
2022/07/19 14:47:06;;;;;;;9.05;4.05;;;;;;;;;;4837072;29;20502;-81
2022/07/19 14:49:32;;;;;;;9.07;3.88;;;;;;;;;;4841142;29;20030;-80
2022/07/19 14:52:01;;;;;;;5.88;3.70;;;;;;;;;;4840944;29;20050;-83
2022/07/19 14:54:38;;;;;;;5.78;3.50;;;;;;;;;;4837894;29;20051;-84
2022/07/19 14:57:04;;;;;;;6.47;3.30;;;;;;;;;;4836288;29;20490;-81
2022/07/19 14:59:31;;;;;;;8.10;4.00;;;;;;;;;;4831844;29;20087;-80
2022/07/19 15:02:03;;;;;;;7.35;4.35;;;;;;;;;;4834303;29;20366;-81
2022/07/19 15:04:34;;;;;;;5.40;4.00;;;;;;;;;;4836167;29;20063;-83
2022/07/19 15:07:04;;;;;;;;;;;;;;;;;;4836357;29;20031;-83
2022/07/19 15:09:36;;;;;;;5.65;3.60;;;;;;;;;;4836458;29;19916;-81
2022/07/19 15:12:07;;;;;;;6.65;3.90;;;;;;;;;;4835236;29;20405;-80
2022/07/19 15:14:38;;;;;;;6.95;4.15;;;;;;;;;;4841862;29;20022;-81
2022/07/19 15:17:18;;;;;;;3.78;3.22;;;;;;;;;;4839988;29;20045;-83
2022/07/19 15:19:48;;;;;;;7.03;3.72;;;;;;;;;;4842326;29;20031;-81
2022/07/19 15:22:18;;;;;;;4.10;3.65;;;;;;;;;;4838317;29;20455;-81
2022/07/19 15:24:53;;;;;;;5.40;3.45;;;;;;;;;;4839405;29;20513;-80
2022/07/19 15:27:25;;;;;;;9.40;3.25;;;;;;;;;;4836910;29;20041;-80
2022/07/19 15:29:57;;;;;;;4.65;3.08;;;;;;;;;;4837948;29;20038;-80
2022/07/19 15:35:32;;;;;;;5.35;3.40;;;;;;;;;;4842385;29;20013;-80
2022/07/19 15:38:11;;;;;;;6.03;3.95;;;;;;;;;;4841013;29;20034;-81
2022/07/19 15:40:52;;;;;;;5.07;3.63;;;;;;;;;;4842539;29;20022;-80
2022/07/19 15:43:29;;;;;;;7.28;3.78;;;;;;;;;;4841624;29;20079;-81
2022/07/19 15:46:00;;;;;;;4.32;3.30;;;;;;;;;;4839508;29;20055;-83
2022/07/19 15:48:31;;;;;;;6.15;3.97;;;;;;;;;;4837002;29;20041;-83
2022/07/19 15:50:59;;;;;;;5.80;3.78;;;;;;;;;;4836247;29;20394;-80
2022/07/19 15:53:34;;;;;;;5.13;3.40;;;;;;;;;;4836512;29;20038;-81
2022/07/19 15:56:01;;;;;;;4.18;3.53;;;;;;;;;;4835077;29;20031;-80
2022/07/19 15:58:28;;;;;;;7.35;3.83;;;;;;;;;;4835511;29;20043;-80
2022/07/19 16:00:57;;;;;;;5.40;3.22;;;;;;;;;;4841268;29;20458;-81
2022/07/19 16:06:17;;;;;;;5.65;3.53;;;;;;;;;;4838207;29;20068;-81
2022/07/19 16:08:48;;;;;;;4.85;3.28;;;;;;;;;;4844479;29;20026;-83
2022/07/19 16:11:36;;;;;;;6.53;3.67;;;;;;;;;;4848435;29;20107;-83
2022/07/19 16:14:04;;;;;;;4.38;3.00;;;;;;;;;;4848097;29;20021;-82
2022/07/19 16:20:19;;;;;;;4.85;3.50;;;;;;;;;;4847855;29;20079;-82
2022/07/19 16:26:24;;;;;;;7.78;3.90;;;;;;;;;;4843976;29;20054;-80
2022/07/19 16:59:30;;;;;;;5.82;3.40;;;;;;;;;;4917930;23;20148;-80
2022/07/19 17:01:56;;;;;;;6.40;3.65;;;;;;;;;;4850490;29;20446;-81
2022/07/19 17:04:25;;;;;;;5.05;4.35;;;;;;;;;;4849769;29;20038;-78
2022/07/19 17:06:51;;;;;;;3.50;3.20;;;;;;;;;;4844548;29;20034;-82
2022/07/19 17:09:17;;;;;;;6.90;3.58;;;;;;;;;;4844495;29;20037;-77
2022/07/19 17:11:44;;;;;;;8.13;4.43;;;;;;;;;;4845682;29;20060;-76
2022/07/19 17:14:10;;;;;;;6.80;4.00;;;;;;;;;;4845898;29;20075;-76
2022/07/19 17:16:38;;;;;;;8.30;4.10;;;;;;;;;;4845712;29;20037;-76
2022/07/19 17:19:22;;;;;;;6.47;4.25;;;;;;;;;;4869317;29;20073;-81
2022/07/19 17:22:21;;;;;;;4.53;3.58;;;;;;;;;;4852661;29;20037;-81
2022/07/19 17:28:03;;;;;;;5.75;4.88;;;;;;;;;;4859290;29;20401;-81
2022/07/19 17:30:30;;;;;;;9.90;4.80;;;;;;;;;;4835151;29;20030;-80
2022/07/19 17:32:56;;;;;;;9.13;4.20;;;;;;;;;;4834796;29;20042;-78
2022/07/19 17:35:22;;;;;;;10.13;5.05;;;;;;;;;;4828590;29;20481;-78
2022/07/19 17:37:48;;;;;;;8.98;4.70;;;;;;;;;;4845465;29;20118;-77
2022/07/19 17:40:14;;;;;;;6.35;4.82;;;;;;;;;;4845234;29;20041;-78
2022/07/19 17:42:40;;;;;;;8.63;4.95;;;;;;;;;;4828526;29;20057;-79
2022/07/19 17:45:07;;;;;;;7.32;5.53;;;;;;;;;;4828632;29;20041;-78
2022/07/19 17:47:33;;;;;;;9.48;5.22;;;;;;;;;;4828324;29;20077;-80
2022/07/19 17:49:59;;;;;;;7.18;5.22;;;;;;;;;;4845051;29;20022;-80
2022/07/19 17:52:25;;;;;;;6.38;5.07;;;;;;;;;;4828440;29;20070;-78
2022/07/19 17:54:52;;;;;;;8.50;5.18;;;;;;;;;;4845059;29;20026;-80
2022/07/19 17:57:18;;;;;;;12.23;5.05;;;;;;;;;;4844929;29;20489;-79
2022/07/19 17:59:45;;;;;;;9.27;5.00;;;;;;;;;;4847212;29;20066;-80
2022/07/19 18:02:12;;;;;;;6.70;4.53;;;;;;;;;;4832830;29;20438;-77
2022/07/19 18:04:38;;;;;;;11.02;4.90;;;;;;;;;;4827661;29;20038;-78
2022/07/19 18:07:04;;;;;;;12.38;5.10;;;;;;;;;;4847597;29;20030;-78
2022/07/19 18:09:30;;;;;;;6.65;4.40;;;;;;;;;;4853236;29;20037;-78
2022/07/19 18:11:56;;;;;;;12.38;5.28;;;;;;;;;;4828869;29;20026;-78
2022/07/19 18:14:22;;;;;;;10.57;4.90;;;;;;;;;;4844625;29;20022;-78
2022/07/19 18:16:48;;;;;;;8.52;4.95;;;;;;;;;;4828231;29;20114;-78
2022/07/19 18:19:14;;;;;;;10.63;4.75;;;;;;;;;;4827743;29;20515;-78
2022/07/19 18:21:40;;;;;;;6.90;4.50;;;;;;;;;;4828062;29;20034;-79
2022/07/19 18:24:07;;;;;;;11.13;4.55;;;;;;;;;;4827599;29;20089;-78
2022/07/19 18:26:33;;;;;;;10.15;5.13;;;;;;;;;;4844626;29;20499;-78
2022/07/19 18:28:59;;;;;;;10.18;4.55;;;;;;;;;;4828875;29;20065;-80
2022/07/19 18:31:25;;;;;;;8.45;4.53;;;;;;;;;;4828248;29;20133;-78